Total de visites : 259815 | les spotteurs aujourd'hui : 5 | les spotteurs connect├ęs actuellement : 1
METAR EN COURS : Saint-Denis / Gillot, Reunion (FMEE) 20-53S 055-31E 25M- - - - Mar 25, 2019 - 07:30 PM EDT / 2019.03.25 2330 UTC- - - - Wind: from the SSE (160 degrees) at 6 MPH (5 KT) (direction variable):0- - - - Visibility: greater than 7 mile(s):0- - - - Temperature: 78 F (26 C)- - - - Dew Point: 66 F (19 C)- - - - Relative Humidity: 65%- - - - Pressure (altimeter): 29.77 in. Hg (1008 hPa)- - - - ob: FMEE 252330Z AUTO 16005KT 130V190 CAVOK 26/19 Q1008 NOSIG- - - - cycle: 23- - - -